ARG1518 SABE-SASJ
Flight info
| Callsign | ARG1518 |
|---|---|
| Flight time | 1h 52m |
| Altitude | 36000 |
| Route | BIVAM4B BIVAM UW8 ERE UT672 ASODO ASODO2U |
| Aircraft | B738/M-SDE2E3FGHIRWXY/LB1 |
Departure
| Time | 2026-05-08 19:18 |
|---|---|
| Airport | Aeroparque Jorge Newbery (SABE) |
Arrival
| Time | 2026-05-08 21:11 |
|---|---|
| Airport | Gobernador Horacio Guzman International Airport (SASJ) |
| Time | Latitude | Longitude | Altitude | Speed | Heading |
|---|---|---|---|---|---|
| 2026-05-08 17:58 | -34.55803 | -58.41446 | 24 ft | 0 kts | 207° |
| 2026-05-08 18:08 | -34.55803 | -58.41445 | 24 ft | 0 kts | 207° |
| 2026-05-08 18:12 | -34.55802 | -58.41445 | 24 ft | 0 kts | 207° |
| 2026-05-08 18:47 | -34.55801 | -58.41445 | 24 ft | 0 kts | 207° |
| 2026-05-08 19:00 | -34.55801 | -58.41444 | 24 ft | 0 kts | 207° |
| 2026-05-08 19:07 | -34.55788 | -58.41437 | 28 ft | 4 kts | 207° |
| 2026-05-08 19:08 | -34.55768 | -58.41420 | 24 ft | 4 kts | 249° |
| 2026-05-08 19:08 | -34.55771 | -58.41403 | 30 ft | 4 kts | 304° |
| 2026-05-08 19:08 | -34.55781 | -58.41386 | 25 ft | 1 kts | 304° |
| 2026-05-08 19:11 | -34.55779 | -58.41389 | 24 ft | 2 kts | 304° |
| 2026-05-08 19:11 | -34.55759 | -58.41425 | 26 ft | 7 kts | 303° |
| 2026-05-08 19:11 | -34.55736 | -58.41474 | 25 ft | 7 kts | 298° |
| 2026-05-08 19:12 | -34.55721 | -58.41525 | 24 ft | 7 kts | 272° |
| 2026-05-08 19:12 | -34.55755 | -58.41575 | 24 ft | 10 kts | 214° |
| 2026-05-08 19:12 | -34.55812 | -58.41565 | 26 ft | 10 kts | 125° |
| 2026-05-08 19:12 | -34.55846 | -58.41488 | 24 ft | 10 kts | 117° |
| 2026-05-08 19:13 | -34.55878 | -58.41411 | 27 ft | 10 kts | 117° |
| 2026-05-08 19:13 | -34.55923 | -58.41308 | 28 ft | 17 kts | 120° |
| 2026-05-08 19:13 | -34.55997 | -58.41183 | 27 ft | 18 kts | 127° |
| 2026-05-08 19:13 | -34.56072 | -58.41064 | 24 ft | 18 kts | 127° |
| 2026-05-08 19:14 | -34.56143 | -58.40945 | 27 ft | 17 kts | 121° |
| 2026-05-08 19:14 | -34.56181 | -58.40815 | 26 ft | 16 kts | 118° |
| 2026-05-08 19:14 | -34.56243 | -58.40702 | 27 ft | 16 kts | 124° |
| 2026-05-08 19:14 | -34.56304 | -58.40595 | 28 ft | 15 kts | 128° |
| 2026-05-08 19:15 | -34.56378 | -58.40508 | 28 ft | 15 kts | 138° |
| 2026-05-08 19:15 | -34.56415 | -58.40468 | 24 ft | 0 kts | 138° |
| 2026-05-08 19:16 | -34.56428 | -58.40454 | 24 ft | 7 kts | 139° |
| 2026-05-08 19:17 | -34.56501 | -58.40387 | 25 ft | 16 kts | 171° |
| 2026-05-08 19:17 | -34.56546 | -58.40464 | 26 ft | 13 kts | 298° |
| 2026-05-08 19:17 | -34.56530 | -58.40494 | 26 ft | 0 kts | 303° |
| 2026-05-08 19:17 | -34.56439 | -58.40658 | 27 ft | 61 kts | 304° |
| 2026-05-08 19:18 | -34.56062 | -58.41333 | 28 ft | 130 kts | 304° |
| 2026-05-08 19:18 | -34.55467 | -58.42393 | 299 ft | 163 kts | 300° |
| 2026-05-08 19:18 | -34.54848 | -58.43531 | 1227 ft | 164 kts | 302° |
| 2026-05-08 19:18 | -34.53843 | -58.44301 | 1988 ft | 190 kts | 341° |
| 2026-05-08 19:19 | -34.52419 | -58.44278 | 2404 ft | 222 kts | 2° |
| 2026-05-08 19:19 | -34.50888 | -58.43527 | 2720 ft | 250 kts | 26° |
| 2026-05-08 19:19 | -34.49389 | -58.42402 | 3323 ft | 253 kts | 27° |
| 2026-05-08 19:19 | -34.47904 | -58.41284 | 4008 ft | 257 kts | 27° |
| 2026-05-08 19:20 | -34.46233 | -58.40545 | 4449 ft | 256 kts | 354° |
| 2026-05-08 19:20 | -34.45107 | -58.40785 | 4859 ft | 244 kts | 328° |
| 2026-05-08 19:20 | -34.43341 | -58.42422 | 5636 ft | 249 kts | 311° |
| 2026-05-08 19:20 | -34.42038 | -58.43910 | 6193 ft | 263 kts | 310° |
| 2026-05-08 19:21 | -34.40705 | -58.45449 | 7000 ft | 266 kts | 311° |
| 2026-05-08 19:21 | -34.39378 | -58.46976 | 7878 ft | 267 kts | 311° |
| 2026-05-08 19:21 | -34.38020 | -58.48533 | 8722 ft | 270 kts | 312° |
| 2026-05-08 19:21 | -34.36645 | -58.50103 | 9604 ft | 272 kts | 312° |
| 2026-05-08 19:22 | -34.35254 | -58.51686 | 10235 ft | 282 kts | 313° |
| 2026-05-08 19:22 | -34.33762 | -58.53388 | 10420 ft | 307 kts | 313° |
| 2026-05-08 19:22 | -34.32153 | -58.55216 | 10761 ft | 325 kts | 313° |
| 2026-05-08 19:22 | -34.30484 | -58.57104 | 11431 ft | 330 kts | 314° |
| 2026-05-08 19:23 | -34.28798 | -58.59004 | 12227 ft | 333 kts | 314° |
| 2026-05-08 19:23 | -34.27094 | -58.60921 | 12995 ft | 336 kts | 314° |
| 2026-05-08 19:23 | -34.25370 | -58.62861 | 13728 ft | 340 kts | 314° |
| 2026-05-08 19:23 | -34.23629 | -58.64822 | 14347 ft | 345 kts | 315° |
| 2026-05-08 19:24 | -34.21843 | -58.66830 | 14869 ft | 354 kts | 315° |
| 2026-05-08 19:24 | -34.20029 | -58.68870 | 15490 ft | 358 kts | 315° |
| 2026-05-08 19:24 | -34.18201 | -58.70925 | 16195 ft | 360 kts | 314° |
| 2026-05-08 19:24 | -34.16357 | -58.72997 | 16834 ft | 364 kts | 314° |
| 2026-05-08 19:25 | -34.14504 | -58.75078 | 17422 ft | 369 kts | 314° |
| 2026-05-08 19:25 | -34.12616 | -58.77197 | 18098 ft | 371 kts | 313° |
| 2026-05-08 19:25 | -34.10743 | -58.79298 | 18682 ft | 374 kts | 313° |
| 2026-05-08 19:25 | -34.08826 | -58.81446 | 19225 ft | 377 kts | 313° |
| 2026-05-08 19:26 | -34.06897 | -58.83606 | 19756 ft | 380 kts | 313° |
| 2026-05-08 19:26 | -34.04950 | -58.85788 | 20293 ft | 383 kts | 314° |
| 2026-05-08 19:26 | -34.02985 | -58.87988 | 20826 ft | 387 kts | 314° |
| 2026-05-08 19:26 | -34.00999 | -58.90209 | 21348 ft | 390 kts | 314° |
| 2026-05-08 19:27 | -33.99001 | -58.92440 | 21866 ft | 393 kts | 314° |
| 2026-05-08 19:27 | -33.96948 | -58.94638 | 22349 ft | 398 kts | 319° |
| 2026-05-08 19:27 | -33.94624 | -58.96492 | 22976 ft | 401 kts | 324° |
| 2026-05-08 19:27 | -33.92256 | -58.98207 | 23468 ft | 403 kts | 325° |
| 2026-05-08 19:28 | -33.89829 | -58.99947 | 23826 ft | 408 kts | 325° |
| 2026-05-08 19:28 | -33.87377 | -59.01706 | 24169 ft | 412 kts | 326° |
| 2026-05-08 19:28 | -33.84910 | -59.03482 | 24527 ft | 415 kts | 326° |
| 2026-05-08 19:28 | -33.82419 | -59.05284 | 24813 ft | 421 kts | 326° |
| 2026-05-08 19:29 | -33.79911 | -59.07105 | 25149 ft | 424 kts | 325° |
| 2026-05-08 19:29 | -33.77380 | -59.08945 | 25563 ft | 425 kts | 325° |
| 2026-05-08 19:29 | -33.74850 | -59.10784 | 26005 ft | 426 kts | 325° |
| 2026-05-08 19:29 | -33.72303 | -59.12637 | 26332 ft | 429 kts | 326° |
| 2026-05-08 19:30 | -33.69736 | -59.14504 | 26630 ft | 433 kts | 325° |
| 2026-05-08 19:30 | -33.67145 | -59.16386 | 26962 ft | 436 kts | 325° |
| 2026-05-08 19:30 | -33.64542 | -59.18277 | 27290 ft | 439 kts | 326° |
| 2026-05-08 19:30 | -33.61914 | -59.20183 | 27603 ft | 442 kts | 325° |
| 2026-05-08 19:31 | -33.59276 | -59.22096 | 27906 ft | 445 kts | 325° |
| 2026-05-08 19:31 | -33.56645 | -59.24002 | 28233 ft | 447 kts | 325° |
| 2026-05-08 19:31 | -33.53975 | -59.25935 | 28534 ft | 450 kts | 325° |
| 2026-05-08 19:31 | -33.51276 | -59.27888 | 28805 ft | 453 kts | 325° |
| 2026-05-08 19:32 | -33.48565 | -59.29848 | 29081 ft | 456 kts | 326° |
| 2026-05-08 19:32 | -33.45844 | -59.31813 | 29382 ft | 458 kts | 326° |
| 2026-05-08 19:32 | -33.43108 | -59.33787 | 29730 ft | 459 kts | 326° |
| 2026-05-08 19:32 | -33.40369 | -59.35760 | 30092 ft | 458 kts | 326° |
| 2026-05-08 19:33 | -33.37642 | -59.37723 | 30473 ft | 456 kts | 326° |
| 2026-05-08 19:33 | -33.34927 | -59.39677 | 30903 ft | 453 kts | 326° |
| 2026-05-08 19:33 | -33.32233 | -59.41615 | 31334 ft | 450 kts | 326° |
| 2026-05-08 19:33 | -33.29554 | -59.43540 | 31738 ft | 448 kts | 326° |
| 2026-05-08 19:34 | -33.26918 | -59.45435 | 32098 ft | 447 kts | 327° |
| 2026-05-08 19:34 | -33.24257 | -59.47345 | 32441 ft | 446 kts | 327° |
| 2026-05-08 19:34 | -33.21601 | -59.49251 | 32806 ft | 444 kts | 327° |
| 2026-05-08 19:34 | -33.18966 | -59.51141 | 33274 ft | 439 kts | 326° |
| 2026-05-08 19:35 | -33.16367 | -59.53003 | 33791 ft | 434 kts | 326° |
| 2026-05-08 19:35 | -33.13780 | -59.54855 | 34112 ft | 432 kts | 326° |
| 2026-05-08 19:35 | -33.11199 | -59.56703 | 34299 ft | 433 kts | 326° |
| 2026-05-08 19:35 | -33.08603 | -59.58561 | 34461 ft | 435 kts | 326° |
| 2026-05-08 19:36 | -33.06013 | -59.60412 | 34703 ft | 434 kts | 326° |
| 2026-05-08 19:36 | -33.03422 | -59.62262 | 34930 ft | 434 kts | 326° |
| 2026-05-08 19:36 | -33.00826 | -59.64115 | 35092 ft | 435 kts | 326° |
| 2026-05-08 19:36 | -32.98234 | -59.65963 | 35403 ft | 432 kts | 326° |
| 2026-05-08 19:37 | -32.95694 | -59.67772 | 35675 ft | 430 kts | 326° |
| 2026-05-08 19:37 | -32.93117 | -59.69607 | 35836 ft | 432 kts | 326° |
| 2026-05-08 19:37 | -32.90530 | -59.71450 | 35831 ft | 435 kts | 326° |
| 2026-05-08 19:38 | -32.85342 | -59.75138 | 35832 ft | 432 kts | 326° |
| 2026-05-08 19:38 | -32.80208 | -59.78781 | 35848 ft | 427 kts | 325° |
| 2026-05-08 19:39 | -32.75118 | -59.82392 | 35844 ft | 425 kts | 325° |
| 2026-05-08 19:39 | -32.70049 | -59.85983 | 35850 ft | 423 kts | 325° |
| 2026-05-08 19:40 | -32.64999 | -59.89558 | 35865 ft | 423 kts | 325° |
| 2026-05-08 19:40 | -32.59926 | -59.93142 | 35865 ft | 431 kts | 326° |
| 2026-05-08 19:41 | -32.54738 | -59.96800 | 35865 ft | 435 kts | 326° |
| 2026-05-08 19:41 | -32.49521 | -60.00473 | 35876 ft | 437 kts | 326° |
| 2026-05-08 19:42 | -32.44290 | -60.04154 | 35866 ft | 437 kts | 326° |
| 2026-05-08 19:42 | -32.39063 | -60.07828 | 35866 ft | 436 kts | 325° |
| 2026-05-08 19:43 | -32.33853 | -60.11486 | 35876 ft | 434 kts | 325° |
| 2026-05-08 19:43 | -32.28671 | -60.15122 | 35878 ft | 432 kts | 325° |
| 2026-05-08 19:44 | -32.23508 | -60.18738 | 35872 ft | 431 kts | 325° |
| 2026-05-08 19:44 | -32.18357 | -60.22341 | 35875 ft | 429 kts | 324° |
| 2026-05-08 19:45 | -32.13232 | -60.25922 | 35884 ft | 427 kts | 324° |
| 2026-05-08 19:45 | -32.08151 | -60.29468 | 35889 ft | 427 kts | 324° |
| 2026-05-08 19:46 | -32.03036 | -60.33033 | 35878 ft | 427 kts | 324° |
| 2026-05-08 19:46 | -31.95350 | -60.38382 | 35881 ft | 427 kts | 324° |
| 2026-05-08 19:47 | -31.90230 | -60.41940 | 35888 ft | 428 kts | 324° |
| 2026-05-08 19:47 | -31.85103 | -60.45499 | 35884 ft | 428 kts | 324° |
| 2026-05-08 19:48 | -31.79969 | -60.49066 | 35877 ft | 428 kts | 323° |
| 2026-05-08 19:48 | -31.74961 | -60.52830 | 35887 ft | 427 kts | 321° |
| 2026-05-08 19:49 | -31.70831 | -60.56027 | 35887 ft | 427 kts | 321° |
| 2026-05-08 19:49 | -31.65037 | -60.60483 | 35895 ft | 428 kts | 321° |
| 2026-05-08 19:50 | -31.60851 | -60.63674 | 35898 ft | 428 kts | 321° |
| 2026-05-08 19:50 | -31.55891 | -60.67443 | 35907 ft | 427 kts | 321° |
| 2026-05-08 19:51 | -31.50919 | -60.71211 | 35903 ft | 422 kts | 321° |
| 2026-05-08 19:51 | -31.46000 | -60.74938 | 35910 ft | 419 kts | 321° |
| 2026-05-08 19:52 | -31.41105 | -60.78643 | 35884 ft | 418 kts | 321° |
| 2026-05-08 19:52 | -31.36230 | -60.82328 | 35908 ft | 417 kts | 321° |
| 2026-05-08 19:53 | -31.31356 | -60.86009 | 35921 ft | 417 kts | 321° |
| 2026-05-08 19:53 | -31.26468 | -60.89697 | 35928 ft | 419 kts | 321° |
| 2026-05-08 19:54 | -31.21555 | -60.93398 | 35894 ft | 421 kts | 321° |
| 2026-05-08 19:54 | -31.16647 | -60.97090 | 35913 ft | 422 kts | 320° |
| 2026-05-08 19:55 | -31.11702 | -61.00805 | 35926 ft | 423 kts | 320° |
| 2026-05-08 19:55 | -31.06754 | -61.04521 | 35930 ft | 423 kts | 320° |
| 2026-05-08 19:56 | -31.01786 | -61.08241 | 35926 ft | 424 kts | 320° |
| 2026-05-08 19:56 | -30.96818 | -61.11941 | 35922 ft | 423 kts | 320° |
| 2026-05-08 19:57 | -30.91883 | -61.15613 | 35930 ft | 422 kts | 320° |
| 2026-05-08 19:57 | -30.86946 | -61.19287 | 35931 ft | 421 kts | 320° |
| 2026-05-08 19:58 | -30.82018 | -61.22951 | 35936 ft | 419 kts | 320° |
| 2026-05-08 19:58 | -30.77111 | -61.26596 | 35926 ft | 417 kts | 320° |
| 2026-05-08 19:59 | -30.72232 | -61.30215 | 35937 ft | 415 kts | 320° |
| 2026-05-08 19:59 | -30.67374 | -61.33814 | 35944 ft | 413 kts | 320° |
| 2026-05-08 20:00 | -30.62556 | -61.37382 | 35937 ft | 413 kts | 320° |
| 2026-05-08 20:00 | -30.57717 | -61.40959 | 35945 ft | 412 kts | 320° |
| 2026-05-08 20:01 | -30.52867 | -61.44542 | 35936 ft | 413 kts | 320° |
| 2026-05-08 20:01 | -30.48008 | -61.48126 | 35944 ft | 414 kts | 320° |
| 2026-05-08 20:02 | -30.43134 | -61.51716 | 35945 ft | 416 kts | 320° |
| 2026-05-08 20:02 | -30.38248 | -61.55311 | 35922 ft | 417 kts | 320° |
| 2026-05-08 20:03 | -30.33349 | -61.58910 | 35928 ft | 417 kts | 319° |
| 2026-05-08 20:03 | -30.28453 | -61.62503 | 35942 ft | 417 kts | 319° |
| 2026-05-08 20:04 | -30.23590 | -61.66066 | 35940 ft | 416 kts | 319° |
| 2026-05-08 20:04 | -30.18704 | -61.69643 | 35948 ft | 415 kts | 319° |
| 2026-05-08 20:05 | -30.13827 | -61.73210 | 35941 ft | 413 kts | 319° |
| 2026-05-08 20:05 | -30.08976 | -61.76754 | 35948 ft | 412 kts | 319° |
| 2026-05-08 20:06 | -30.04135 | -61.80288 | 35949 ft | 411 kts | 319° |
| 2026-05-08 20:06 | -29.99306 | -61.83808 | 35950 ft | 409 kts | 319° |
| 2026-05-08 20:07 | -29.94497 | -61.87312 | 35883 ft | 408 kts | 319° |
| 2026-05-08 20:07 | -29.89711 | -61.90793 | 35938 ft | 406 kts | 319° |
| 2026-05-08 20:08 | -29.84895 | -61.94131 | 35944 ft | 409 kts | 322° |
| 2026-05-08 20:08 | -29.79858 | -61.97221 | 35955 ft | 410 kts | 323° |
| 2026-05-08 20:09 | -29.74798 | -62.00281 | 35963 ft | 411 kts | 322° |
| 2026-05-08 20:09 | -29.69739 | -62.03368 | 35952 ft | 411 kts | 322° |
| 2026-05-08 20:10 | -29.64688 | -62.06468 | 35948 ft | 412 kts | 322° |
| 2026-05-08 20:10 | -29.59623 | -62.09581 | 35955 ft | 413 kts | 322° |
| 2026-05-08 20:11 | -29.54586 | -62.12674 | 35959 ft | 413 kts | 322° |
| 2026-05-08 20:11 | -29.49503 | -62.15791 | 35891 ft | 414 kts | 321° |
| 2026-05-08 20:12 | -29.44436 | -62.18892 | 35952 ft | 412 kts | 321° |
| 2026-05-08 20:12 | -29.39384 | -62.21982 | 35960 ft | 411 kts | 321° |
| 2026-05-08 20:13 | -29.34343 | -62.25063 | 35960 ft | 410 kts | 321° |
| 2026-05-08 20:13 | -29.29299 | -62.28143 | 35963 ft | 410 kts | 321° |
| 2026-05-08 20:14 | -29.24291 | -62.31196 | 35947 ft | 409 kts | 321° |
| 2026-05-08 20:14 | -29.19260 | -62.34260 | 35959 ft | 408 kts | 321° |
| 2026-05-08 20:15 | -29.14239 | -62.37314 | 35964 ft | 408 kts | 321° |
| 2026-05-08 20:15 | -29.09249 | -62.40348 | 35966 ft | 408 kts | 321° |
| 2026-05-08 20:16 | -29.04198 | -62.43414 | 35912 ft | 408 kts | 321° |
| 2026-05-08 20:16 | -28.99225 | -62.46429 | 35955 ft | 407 kts | 321° |
| 2026-05-08 20:17 | -28.94218 | -62.49464 | 35967 ft | 407 kts | 321° |
| 2026-05-08 20:17 | -28.89210 | -62.52497 | 35964 ft | 407 kts | 321° |
| 2026-05-08 20:18 | -28.84200 | -62.55526 | 35959 ft | 408 kts | 320° |
| 2026-05-08 20:18 | -28.79182 | -62.58542 | 35954 ft | 407 kts | 321° |
| 2026-05-08 20:19 | -28.74154 | -62.61543 | 35961 ft | 408 kts | 321° |
| 2026-05-08 20:19 | -28.69151 | -62.64531 | 35965 ft | 409 kts | 321° |
| 2026-05-08 20:20 | -28.64101 | -62.67547 | 35963 ft | 410 kts | 321° |
| 2026-05-08 20:20 | -28.59045 | -62.70564 | 35867 ft | 410 kts | 321° |
| 2026-05-08 20:21 | -28.53994 | -62.73574 | 35949 ft | 409 kts | 321° |
| 2026-05-08 20:21 | -28.48949 | -62.76578 | 35956 ft | 409 kts | 321° |
| 2026-05-08 20:22 | -28.43942 | -62.79557 | 35965 ft | 409 kts | 321° |
| 2026-05-08 20:22 | -28.39716 | -62.82069 | 35959 ft | 409 kts | 321° |
| 2026-05-08 20:23 | -28.33844 | -62.85556 | 35962 ft | 410 kts | 320° |
| 2026-05-08 20:23 | -28.28790 | -62.88554 | 35969 ft | 411 kts | 320° |
| 2026-05-08 20:24 | -28.23719 | -62.91557 | 35964 ft | 412 kts | 320° |
| 2026-05-08 20:24 | -28.18636 | -62.94565 | 35966 ft | 412 kts | 320° |
| 2026-05-08 20:25 | -28.13540 | -62.97577 | 35963 ft | 413 kts | 320° |
| 2026-05-08 20:25 | -28.08486 | -63.00560 | 35962 ft | 412 kts | 321° |
| 2026-05-08 20:26 | -28.03400 | -63.03559 | 35960 ft | 412 kts | 321° |
| 2026-05-08 20:26 | -27.98311 | -63.06557 | 35961 ft | 412 kts | 321° |
| 2026-05-08 20:27 | -27.93227 | -63.09550 | 35964 ft | 412 kts | 321° |
| 2026-05-08 20:27 | -27.88142 | -63.12540 | 35895 ft | 412 kts | 321° |
| 2026-05-08 20:28 | -27.83096 | -63.15501 | 35952 ft | 411 kts | 320° |
| 2026-05-08 20:28 | -27.78015 | -63.18484 | 35959 ft | 411 kts | 320° |
| 2026-05-08 20:29 | -27.72925 | -63.21469 | 35965 ft | 413 kts | 320° |
| 2026-05-08 20:29 | -27.67809 | -63.24466 | 35963 ft | 414 kts | 320° |
| 2026-05-08 20:30 | -27.62688 | -63.27461 | 35920 ft | 415 kts | 320° |
| 2026-05-08 20:30 | -27.57566 | -63.30451 | 35950 ft | 415 kts | 320° |
| 2026-05-08 20:31 | -27.52466 | -63.33428 | 35963 ft | 416 kts | 320° |
| 2026-05-08 20:31 | -27.47311 | -63.36434 | 35959 ft | 417 kts | 321° |
| 2026-05-08 20:32 | -27.42151 | -63.39439 | 35957 ft | 418 kts | 321° |
| 2026-05-08 20:32 | -27.36989 | -63.42440 | 35948 ft | 416 kts | 321° |
| 2026-05-08 20:33 | -27.31835 | -63.45435 | 35946 ft | 417 kts | 321° |
| 2026-05-08 20:33 | -27.26711 | -63.48411 | 35954 ft | 417 kts | 321° |
| 2026-05-08 20:34 | -27.21534 | -63.51415 | 35950 ft | 419 kts | 321° |
| 2026-05-08 20:35 | -27.13755 | -63.55922 | 35942 ft | 419 kts | 321° |
| 2026-05-08 20:35 | -27.08561 | -63.58928 | 35944 ft | 420 kts | 321° |
| 2026-05-08 20:36 | -27.03366 | -63.61931 | 35943 ft | 420 kts | 321° |
| 2026-05-08 20:36 | -26.98155 | -63.64932 | 35944 ft | 421 kts | 321° |
| 2026-05-08 20:37 | -26.92936 | -63.67918 | 35942 ft | 421 kts | 321° |
| 2026-05-08 20:37 | -26.87757 | -63.70880 | 35937 ft | 419 kts | 321° |
| 2026-05-08 20:38 | -26.82557 | -63.73856 | 35941 ft | 419 kts | 321° |
| 2026-05-08 20:38 | -26.77358 | -63.76832 | 35936 ft | 419 kts | 321° |
| 2026-05-08 20:39 | -26.72160 | -63.79802 | 35943 ft | 420 kts | 321° |
| 2026-05-08 20:39 | -26.66824 | -63.82596 | 35890 ft | 427 kts | 326° |
| 2026-05-08 20:40 | -26.62229 | -63.84655 | 35912 ft | 429 kts | 327° |
| 2026-05-08 20:40 | -26.59453 | -63.85876 | 35631 ft | 427 kts | 327° |
| 2026-05-08 20:40 | -26.56712 | -63.87083 | 35395 ft | 420 kts | 327° |
| 2026-05-08 20:40 | -26.54010 | -63.88282 | 35146 ft | 415 kts | 327° |
| 2026-05-08 20:41 | -26.51343 | -63.89476 | 34904 ft | 411 kts | 326° |
| 2026-05-08 20:41 | -26.48704 | -63.90666 | 34668 ft | 408 kts | 326° |
| 2026-05-08 20:41 | -26.46086 | -63.91850 | 34436 ft | 405 kts | 326° |
| 2026-05-08 20:41 | -26.43483 | -63.93029 | 34206 ft | 403 kts | 326° |
| 2026-05-08 20:42 | -26.40886 | -63.94204 | 33915 ft | 401 kts | 326° |
| 2026-05-08 20:42 | -26.38308 | -63.95370 | 33653 ft | 399 kts | 326° |
| 2026-05-08 20:42 | -26.35741 | -63.96531 | 33396 ft | 398 kts | 326° |
| 2026-05-08 20:42 | -26.33181 | -63.97687 | 33140 ft | 396 kts | 326° |
| 2026-05-08 20:43 | -26.30628 | -63.98839 | 32877 ft | 395 kts | 326° |
| 2026-05-08 20:43 | -26.28087 | -63.99985 | 32622 ft | 394 kts | 326° |
| 2026-05-08 20:43 | -26.25551 | -64.01128 | 32370 ft | 392 kts | 326° |
| 2026-05-08 20:43 | -26.23021 | -64.02267 | 32119 ft | 391 kts | 326° |
| 2026-05-08 20:44 | -26.20503 | -64.03401 | 31871 ft | 390 kts | 326° |
| 2026-05-08 20:44 | -26.18019 | -64.04519 | 31628 ft | 388 kts | 326° |
| 2026-05-08 20:44 | -26.15504 | -64.05651 | 31325 ft | 387 kts | 327° |
| 2026-05-08 20:44 | -26.13007 | -64.06774 | 31080 ft | 386 kts | 327° |
| 2026-05-08 20:45 | -26.10516 | -64.07893 | 30847 ft | 385 kts | 327° |
| 2026-05-08 20:45 | -26.08035 | -64.09008 | 30610 ft | 384 kts | 326° |
| 2026-05-08 20:45 | -26.05562 | -64.10120 | 30381 ft | 383 kts | 327° |
| 2026-05-08 20:45 | -26.03103 | -64.11223 | 30126 ft | 378 kts | 326° |
| 2026-05-08 20:46 | -26.00680 | -64.12308 | 29788 ft | 374 kts | 326° |
| 2026-05-08 20:46 | -25.98309 | -64.13369 | 29448 ft | 369 kts | 326° |
| 2026-05-08 20:46 | -25.95956 | -64.14508 | 29205 ft | 357 kts | 323° |
| 2026-05-08 20:46 | -25.93777 | -64.15696 | 28889 ft | 351 kts | 321° |
| 2026-05-08 20:47 | -25.91622 | -64.16922 | 28561 ft | 346 kts | 321° |
| 2026-05-08 20:47 | -25.89494 | -64.18144 | 28207 ft | 343 kts | 321° |
| 2026-05-08 20:47 | -25.87381 | -64.19354 | 27864 ft | 340 kts | 321° |
| 2026-05-08 20:47 | -25.85277 | -64.20550 | 27528 ft | 337 kts | 321° |
| 2026-05-08 20:48 | -25.83195 | -64.21728 | 27192 ft | 335 kts | 321° |
| 2026-05-08 20:48 | -25.81121 | -64.22896 | 26866 ft | 334 kts | 321° |
| 2026-05-08 20:48 | -25.79054 | -64.24058 | 26541 ft | 333 kts | 322° |
| 2026-05-08 20:48 | -25.76981 | -64.25225 | 26231 ft | 337 kts | 322° |
| 2026-05-08 20:49 | -25.74851 | -64.26428 | 25907 ft | 349 kts | 322° |
| 2026-05-08 20:49 | -25.72668 | -64.27656 | 25541 ft | 352 kts | 322° |
| 2026-05-08 20:49 | -25.70485 | -64.28873 | 25183 ft | 351 kts | 323° |
| 2026-05-08 20:49 | -25.68337 | -64.30067 | 24839 ft | 349 kts | 323° |
| 2026-05-08 20:50 | -25.66171 | -64.31271 | 24460 ft | 348 kts | 323° |
| 2026-05-08 20:50 | -25.64013 | -64.32472 | 24130 ft | 346 kts | 323° |
| 2026-05-08 20:50 | -25.61861 | -64.33670 | 23797 ft | 345 kts | 323° |
| 2026-05-08 20:50 | -25.59710 | -64.34869 | 23421 ft | 345 kts | 323° |
| 2026-05-08 20:51 | -25.57568 | -64.36062 | 23037 ft | 344 kts | 323° |
| 2026-05-08 20:51 | -25.55434 | -64.37250 | 22673 ft | 342 kts | 323° |
| 2026-05-08 20:51 | -25.53313 | -64.38430 | 22340 ft | 340 kts | 323° |
| 2026-05-08 20:51 | -25.51205 | -64.39604 | 21998 ft | 338 kts | 323° |
| 2026-05-08 20:52 | -25.49112 | -64.40768 | 21671 ft | 336 kts | 323° |
| 2026-05-08 20:52 | -25.47025 | -64.41929 | 21338 ft | 334 kts | 323° |
| 2026-05-08 20:52 | -25.44949 | -64.43083 | 21020 ft | 333 kts | 323° |
| 2026-05-08 20:52 | -25.42889 | -64.44228 | 20686 ft | 331 kts | 324° |
| 2026-05-08 20:53 | -25.40830 | -64.45372 | 20352 ft | 330 kts | 323° |
| 2026-05-08 20:53 | -25.38809 | -64.46495 | 20037 ft | 329 kts | 324° |
| 2026-05-08 20:53 | -25.36767 | -64.47629 | 19717 ft | 328 kts | 324° |
| 2026-05-08 20:53 | -25.34727 | -64.48762 | 19394 ft | 327 kts | 324° |
| 2026-05-08 20:54 | -25.32691 | -64.49893 | 19053 ft | 327 kts | 324° |
| 2026-05-08 20:54 | -25.30657 | -64.51022 | 18716 ft | 327 kts | 324° |
| 2026-05-08 20:54 | -25.28623 | -64.52151 | 18371 ft | 327 kts | 324° |
| 2026-05-08 20:54 | -25.26582 | -64.53283 | 17985 ft | 328 kts | 324° |
| 2026-05-08 20:55 | -25.24543 | -64.54411 | 17642 ft | 327 kts | 324° |
| 2026-05-08 20:55 | -25.22515 | -64.55532 | 17292 ft | 325 kts | 325° |
| 2026-05-08 20:55 | -25.20563 | -64.56716 | 17128 ft | 313 kts | 320° |
| 2026-05-08 20:55 | -25.18760 | -64.57970 | 16849 ft | 308 kts | 319° |
| 2026-05-08 20:56 | -25.16977 | -64.59259 | 16544 ft | 305 kts | 318° |
| 2026-05-08 20:56 | -25.15208 | -64.60544 | 16212 ft | 304 kts | 319° |
| 2026-05-08 20:56 | -25.13443 | -64.61818 | 15890 ft | 303 kts | 320° |
| 2026-05-08 20:56 | -25.11679 | -64.63083 | 15566 ft | 301 kts | 320° |
| 2026-05-08 20:57 | -25.09917 | -64.64340 | 15213 ft | 302 kts | 320° |
| 2026-05-08 20:57 | -25.08156 | -64.65593 | 14872 ft | 302 kts | 321° |
| 2026-05-08 20:57 | -25.06385 | -64.66848 | 14522 ft | 302 kts | 321° |
| 2026-05-08 20:57 | -25.04617 | -64.68098 | 14178 ft | 302 kts | 322° |
| 2026-05-08 20:58 | -25.02849 | -64.69346 | 13830 ft | 301 kts | 322° |
| 2026-05-08 20:58 | -25.01084 | -64.70592 | 13448 ft | 301 kts | 322° |
| 2026-05-08 20:58 | -24.99317 | -64.71838 | 13088 ft | 300 kts | 323° |
| 2026-05-08 20:58 | -24.97573 | -64.73066 | 12716 ft | 294 kts | 323° |
| 2026-05-08 20:59 | -24.95861 | -64.74270 | 12345 ft | 290 kts | 324° |
| 2026-05-08 20:59 | -24.94189 | -64.75446 | 12012 ft | 289 kts | 324° |
| 2026-05-08 20:59 | -24.92496 | -64.76639 | 11662 ft | 289 kts | 324° |
| 2026-05-08 20:59 | -24.90806 | -64.77829 | 11310 ft | 288 kts | 325° |
| 2026-05-08 21:00 | -24.89118 | -64.79017 | 10995 ft | 287 kts | 326° |
| 2026-05-08 21:00 | -24.87443 | -64.80195 | 10689 ft | 285 kts | 326° |
| 2026-05-08 21:00 | -24.85779 | -64.81365 | 10413 ft | 282 kts | 327° |
| 2026-05-08 21:00 | -24.84144 | -64.82514 | 10187 ft | 274 kts | 327° |
| 2026-05-08 21:01 | -24.82566 | -64.83623 | 10067 ft | 266 kts | 328° |
| 2026-05-08 21:01 | -24.81012 | -64.84715 | 9771 ft | 265 kts | 328° |
| 2026-05-08 21:01 | -24.79464 | -64.85802 | 9484 ft | 262 kts | 328° |
| 2026-05-08 21:01 | -24.77933 | -64.86877 | 9251 ft | 258 kts | 328° |
| 2026-05-08 21:02 | -24.76444 | -64.87922 | 9151 ft | 250 kts | 328° |
| 2026-05-08 21:02 | -24.74995 | -64.88937 | 9006 ft | 243 kts | 328° |
| 2026-05-08 21:02 | -24.73594 | -64.89919 | 8922 ft | 235 kts | 329° |
| 2026-05-08 21:02 | -24.72258 | -64.90855 | 8827 ft | 227 kts | 329° |
| 2026-05-08 21:03 | -24.70924 | -64.91788 | 8686 ft | 226 kts | 329° |
| 2026-05-08 21:03 | -24.69635 | -64.92692 | 8559 ft | 217 kts | 329° |
| 2026-05-08 21:03 | -24.68306 | -64.93389 | 8368 ft | 207 kts | 344° |
| 2026-05-08 21:03 | -24.66953 | -64.93857 | 8134 ft | 201 kts | 343° |
| 2026-05-08 21:04 | -24.65626 | -64.94344 | 7928 ft | 200 kts | 343° |
| 2026-05-08 21:04 | -24.64300 | -64.94837 | 7728 ft | 201 kts | 342° |
| 2026-05-08 21:04 | -24.62979 | -64.95332 | 7507 ft | 199 kts | 342° |
| 2026-05-08 21:04 | -24.61690 | -64.95817 | 7272 ft | 193 kts | 342° |
| 2026-05-08 21:05 | -24.60482 | -64.96407 | 7025 ft | 188 kts | 332° |
| 2026-05-08 21:05 | -24.59364 | -64.97122 | 6825 ft | 184 kts | 330° |
| 2026-05-08 21:05 | -24.58259 | -64.97806 | 6638 ft | 180 kts | 333° |
| 2026-05-08 21:05 | -24.57182 | -64.98466 | 6455 ft | 179 kts | 334° |
| 2026-05-08 21:06 | -24.56105 | -64.99138 | 6263 ft | 178 kts | 335° |
| 2026-05-08 21:06 | -24.55034 | -64.99811 | 6069 ft | 177 kts | 335° |
| 2026-05-08 21:06 | -24.53971 | -65.00483 | 5871 ft | 175 kts | 335° |
| 2026-05-08 21:06 | -24.52931 | -65.01141 | 5745 ft | 168 kts | 335° |
| 2026-05-08 21:07 | -24.51942 | -65.01767 | 5598 ft | 162 kts | 335° |
| 2026-05-08 21:07 | -24.50981 | -65.02374 | 5385 ft | 157 kts | 335° |
| 2026-05-08 21:07 | -24.50044 | -65.02966 | 5178 ft | 155 kts | 335° |
| 2026-05-08 21:07 | -24.49106 | -65.03558 | 4977 ft | 156 kts | 335° |
| 2026-05-08 21:08 | -24.48168 | -65.04151 | 4786 ft | 155 kts | 335° |
| 2026-05-08 21:08 | -24.47240 | -65.04738 | 4564 ft | 152 kts | 335° |
| 2026-05-08 21:08 | -24.46339 | -65.05308 | 4356 ft | 151 kts | 335° |
| 2026-05-08 21:08 | -24.45424 | -65.05886 | 4164 ft | 153 kts | 335° |
| 2026-05-08 21:09 | -24.44498 | -65.06471 | 3958 ft | 153 kts | 335° |
| 2026-05-08 21:09 | -24.43577 | -65.07055 | 3747 ft | 152 kts | 335° |
| 2026-05-08 21:09 | -24.42658 | -65.07632 | 3513 ft | 152 kts | 335° |
| 2026-05-08 21:09 | -24.41750 | -65.08206 | 3302 ft | 149 kts | 334° |
| 2026-05-08 21:10 | -24.40847 | -65.08781 | 3119 ft | 153 kts | 334° |
| 2026-05-08 21:10 | -24.39929 | -65.09366 | 3002 ft | 146 kts | 335° |
| 2026-05-08 21:10 | -24.39152 | -65.09854 | 2999 ft | 107 kts | 330° |
| 2026-05-08 21:10 | -24.38643 | -65.10173 | 2998 ft | 74 kts | 330° |
| 2026-05-08 21:11 | -24.38281 | -65.10403 | 2996 ft | 42 kts | 330° |
| 2026-05-08 21:11 | -24.38120 | -65.10462 | 2997 ft | 18 kts | 360° |
| 2026-05-08 21:11 | -24.38027 | -65.10395 | 2996 ft | 11 kts | 61° |
| 2026-05-08 21:11 | -24.38021 | -65.10382 | 2996 ft | 6 kts | 61° |
| 2026-05-08 21:12 | -24.38022 | -65.10344 | 2996 ft | 6 kts | 130° |
| 2026-05-08 21:12 | -24.38070 | -65.10309 | 2996 ft | 11 kts | 149° |
| 2026-05-08 21:13 | -24.38153 | -65.10256 | 2996 ft | 14 kts | 151° |
| 2026-05-08 21:13 | -24.38237 | -65.10203 | 2996 ft | 14 kts | 150° |
| 2026-05-08 21:13 | -24.38318 | -65.10152 | 2996 ft | 13 kts | 150° |
| 2026-05-08 21:13 | -24.38396 | -65.10103 | 2996 ft | 13 kts | 149° |
| 2026-05-08 21:14 | -24.38472 | -65.10055 | 2996 ft | 12 kts | 150° |
| 2026-05-08 21:14 | -24.38546 | -65.10009 | 2996 ft | 12 kts | 150° |
| 2026-05-08 21:14 | -24.38618 | -65.09963 | 2997 ft | 12 kts | 149° |
| 2026-05-08 21:14 | -24.38687 | -65.09919 | 2997 ft | 11 kts | 142° |
| 2026-05-08 21:15 | -24.38689 | -65.09841 | 2996 ft | 11 kts | 59° |
| 2026-05-08 21:15 | -24.38647 | -65.09764 | 2996 ft | 12 kts | 60° |
| 2026-05-08 21:15 | -24.38607 | -65.09688 | 2996 ft | 12 kts | 59° |
| 2026-05-08 21:15 | -24.38568 | -65.09611 | 2996 ft | 11 kts | 61° |
| 2026-05-08 21:16 | -24.38575 | -65.09558 | 2996 ft | 6 kts | 143° |
| 2026-05-08 21:16 | -24.38613 | -65.09535 | 2996 ft | 6 kts | 150° |
| 2026-05-08 21:16 | -24.38644 | -65.09506 | 2996 ft | 6 kts | 103° |
| 2026-05-08 21:16 | -24.38630 | -65.09475 | 2996 ft | 5 kts | 61° |
| 2026-05-08 21:17 | -24.38627 | -65.09470 | 2996 ft | 0 kts | 60° |
| 2026-05-08 21:17 | -24.38627 | -65.09469 | 2996 ft | 0 kts | 60° |
| 2026-05-08 21:19 | -24.38627 | -65.09470 | 2996 ft | 0 kts | 60° |